AYNZ/LAE METAR and TAF weather

Enter ICAO airport designator
Station Type Date Time Source
AYNZ METAR 2022/06/26 07:00 UTC NOAA

AYNZ 260700Z 06010KT 9999 SCT030 SCT050 28/22 Q1007=


Station Type Date Time Source
AYNZ Decoded METAR 2022/06/26 07:00 UTC NOAA

Station name not available
Jun 26, 2022 - 03:00 AM EDT / 2022.06.26 0700 UTC
Wind: from the ENE (060 degrees) at 12 MPH (10 KT):0
Visibility: greater than 7 mile(s):0
Sky conditions: partly cloudy
Temperature: 82 F (28 C)
Dew Point: 71 F (22 C)
Relative Humidity: 69%
Pressure (altimeter): 29.74 in. Hg (1007 hPa)
ob: AYNZ 260700Z 06010KT 9999 SCT030 SCT050 28/22 Q1007=
cycle: 7

Station Type Date Time Source
AYNZ TAF 2015/08/19 08:15 UTC NOAA

TAF AYNZ 190550Z 1908/1920 09015KT 9999 SCT020 SCT120
FM191400 VRB03KT 9999 BKN040 Q 1011 1014 1013 1010

Example: see airport list